Time;durP1;ratioP1;P1;durP2;ratioP2;P2;SDS_P1;SDS_P2;PMS_P1;PMS_P2;Temp;Humidity;BMP_temperature;BMP_pressure;BME280_temperature;BME280_humidity;BME280_pressure;Samples;Min_cycle;Max_cycle;Signal;HPM_P1;HPM_P2
2021/05/06 00:34:14;;;;;;;7.30;4.28;;;3.80;99.90;;;;;;4996321;28;20145;-86
2021/05/06 00:36:43;;;;;;;10.50;4.10;;;3.80;99.90;;;;;;4992848;28;20082;-86
2021/05/06 00:39:13;;;;;;;6.97;4.28;;;3.80;99.90;;;;;;4995317;28;20181;-86
2021/05/06 00:44:47;;;;;;;6.57;3.72;;;3.80;99.90;;;;;;4998472;28;20145;-87
2021/05/06 00:58:43;;;;;;;5.18;3.20;;;4.00;99.90;;;;;;4947031;28;20076;-87
2021/05/06 01:06:44;;;;;;;5.85;3.10;;;4.20;99.90;;;;;;4993643;28;20066;-87
2021/05/06 01:09:13;;;;;;;3.15;2.70;;;4.20;99.90;;;;;;4976451;28;20356;-87
2021/05/06 01:11:53;;;;;;;4.18;3.25;;;4.20;99.90;;;;;;4999166;28;20145;-87
2021/05/06 01:14:19;;;;;;;5.38;2.88;;;4.30;99.90;;;;;;4997153;28;20046;-87
2021/05/06 01:16:46;;;;;;;8.68;3.47;;;4.30;99.90;;;;;;5008177;28;20136;-86
2021/05/06 01:19:13;;;;;;;5.93;3.53;;;4.30;99.90;;;;;;5019293;28;20042;-87
2021/05/06 01:21:39;;;;;;;4.90;3.35;;;4.30;99.90;;;;;;5010595;28;20408;-87
2021/05/06 01:24:06;;;;;;;8.50;3.60;;;4.30;99.90;;;;;;4997860;28;20137;-87
2021/05/06 01:29:02;;;;;;;8.68;3.65;;;4.30;99.90;;;;;;5004567;28;20042;-87
2021/05/06 01:31:32;;;;;;;7.55;3.72;;;4.30;99.90;;;;;;4999260;28;20496;-88
2021/05/06 01:36:40;;;;;;;5.40;3.13;;;4.40;99.90;;;;;;4999461;28;20128;-87
2021/05/06 01:42:16;;;;;;;7.47;4.30;;;4.40;99.90;;;;;;4964542;28;20125;-86
2021/05/06 01:58:20;;;;;;;6.68;3.60;;;4.40;99.90;;;;;;4997524;28;20080;-88
2021/05/06 02:00:38;;;;;;;4.55;3.33;;;4.40;99.90;;;;;;4990550;28;20125;-87
2021/05/06 02:03:05;;;;;;;7.28;3.60;;;4.50;99.90;;;;;;4991343;28;20080;-86
2021/05/06 02:05:39;;;;;;;;;;;4.50;99.90;;;;;;5028609;28;20121;-85
2021/05/06 02:08:10;;;;;;;7.47;3.63;;;4.50;99.90;;;;;;5008903;28;20064;-87
2021/05/06 02:10:37;;;;;;;10.35;3.80;;;4.40;99.90;;;;;;5003800;28;20054;-88
2021/05/06 02:13:06;;;;;;;3.72;3.22;;;4.40;99.90;;;;;;4997956;28;20058;-86
2021/05/06 02:15:37;;;;;;;9.27;4.00;;;4.40;99.90;;;;;;5000859;28;20112;-86
2021/05/06 02:18:04;;;;;;;7.60;3.38;;;4.40;99.90;;;;;;4993800;28;20109;-86
2021/05/06 02:20:31;;;;;;;10.70;4.22;;;4.40;99.90;;;;;;5000029;28;20140;-87
2021/05/06 02:22:57;;;;;;;9.40;4.20;;;4.40;99.90;;;;;;4994278;28;20141;-87
2021/05/06 02:25:24;;;;;;;7.88;4.32;;;4.30;99.90;;;;;;4998003;28;20496;-87
2021/05/06 02:27:50;;;;;;;9.05;4.18;;;4.30;99.90;;;;;;4991997;28;20129;-87
2021/05/06 02:30:17;;;;;;;6.63;3.88;;;4.30;99.90;;;;;;4974580;28;20145;-86
2021/05/06 02:32:47;;;;;;;9.65;3.92;;;4.20;99.90;;;;;;4975874;28;20420;-87
2021/05/06 02:35:14;;;;;;;8.90;3.70;;;4.20;99.90;;;;;;4999417;28;20042;-87
2021/05/06 02:37:40;;;;;;;10.05;4.43;;;4.20;99.90;;;;;;4997557;28;20540;-87
2021/05/06 02:40:10;;;;;;;7.15;3.80;;;4.30;99.90;;;;;;4991135;28;20057;-86
2021/05/06 02:42:37;;;;;;;9.07;4.00;;;4.30;99.90;;;;;;4991863;28;20133;-86
2021/05/06 02:45:05;;;;;;;10.50;4.95;;;4.30;99.90;;;;;;4991478;28;20495;-87
2021/05/06 02:47:31;;;;;;;9.75;4.80;;;4.20;99.90;;;;;;4994713;28;20121;-88
2021/05/06 02:49:57;;;;;;;6.55;4.65;;;4.10;99.90;;;;;;4974237;28;20049;-88
2021/05/06 02:52:33;;;;;;;9.65;4.57;;;4.10;99.90;;;;;;4974754;28;20129;-88
2021/05/06 02:55:09;;;;;;;10.55;5.22;;;4.00;99.90;;;;;;4995956;28;20129;-88
2021/05/06 02:57:42;;;;;;;8.50;4.65;;;3.90;99.90;;;;;;4996838;28;20077;-87
2021/05/06 03:03:00;;;;;;;11.80;4.68;;;3.90;99.90;;;;;;5004355;28;20086;-87
2021/05/06 03:05:30;;;;;;;8.45;4.82;;;3.90;99.90;;;;;;5004738;28;20057;-87
2021/05/06 03:08:05;;;;;;;10.30;5.22;;;3.90;99.90;;;;;;5008641;28;20102;-87
2021/05/06 03:23:35;;;;;;;;;;;3.90;99.90;;;;;;5010531;28;20077;-88
2021/05/06 03:26:02;;;;;;;11.68;5.55;;;3.90;99.90;;;;;;5003138;28;20000;-88
2021/05/06 03:28:35;;;;;;;10.38;5.30;;;3.90;99.90;;;;;;4999616;28;20046;-90
2021/05/06 03:31:21;;;;;;;10.77;5.57;;;3.80;99.90;;;;;;4993409;28;20042;-89
2021/05/06 04:03:26;;;;;;;10.73;6.00;;;3.60;99.90;;;;;;4996060;28;20094;-88
2021/05/06 04:14:33;;;;;;;13.30;7.07;;;3.30;99.90;;;;;;5011522;28;20145;-87
2021/05/06 04:18:35;;;;;;;15.32;8.00;;;3.10;99.90;;;;;;5003000;28;20621;-87
2021/05/06 04:26:48;;;;;;;14.07;8.45;;;3.10;99.90;;;;;;4978808;28;20141;-88
2021/05/06 04:37:29;;;;;;;14.13;8.60;;;3.00;99.90;;;;;;5005804;28;20720;-91
2021/05/06 04:40:10;;;;;;;15.60;10.55;;;3.00;99.90;;;;;;4985641;28;20186;-90
2021/05/06 04:53:59;;;;;;;14.43;8.13;;;3.20;99.90;;;;;;4984636;28;20043;-86
2021/05/06 04:59:15;;;;;;;8.32;6.30;;;3.50;99.90;;;;;;4980856;28;20058;-87
2021/05/06 05:04:34;;;;;;;8.43;5.03;;;3.70;99.90;;;;;;5016251;28;20109;-86
2021/05/06 05:15:06;;;;;;;7.93;4.65;;;4.00;99.90;;;;;;5003697;28;20054;-92
2021/05/06 05:17:49;;;;;;;8.55;4.45;;;4.10;99.90;;;;;;5005234;28;20101;-94
2021/05/06 05:20:35;;;;;;;6.32;3.50;;;4.20;99.90;;;;;;4987194;28;20092;-93
2021/05/06 05:25:59;;;;;;;8.27;4.38;;;4.40;99.90;;;;;;5005003;28;20042;-91
2021/05/06 05:28:29;;;;;;;8.35;4.32;;;4.50;99.90;;;;;;5008698;28;20103;-92
2021/05/06 05:31:12;;;;;;;8.20;4.07;;;4.60;99.90;;;;;;5008247;28;20062;-88
2021/05/06 05:58:11;;;;;;;7.68;3.00;;;5.20;99.90;;;;;;4777833;29;20050;-90
2021/05/06 06:22:14;;;;;;;5.88;2.78;;;5.30;99.90;;;;;;4767746;29;20049;-92
2021/05/06 06:24:55;;;;;;;12.38;4.28;;;5.40;99.90;;;;;;4769577;30;20060;-89
2021/05/06 06:27:22;;;;;;;6.88;3.50;;;5.40;99.90;;;;;;4769113;30;20052;-88
2021/05/06 06:29:54;;;;;;;;;;;5.50;99.90;;;;;;4810793;29;20049;-89
2021/05/06 06:32:21;;;;;;;18.13;3.15;;;5.50;99.90;;;;;;4868970;29;20023;-86
2021/05/06 06:34:51;;;;;;;7.57;3.20;;;5.50;99.90;;;;;;4880574;29;20080;-84
2021/05/06 06:37:18;;;;;;;11.77;3.80;;;5.50;99.90;;;;;;4868558;29;20053;-85
2021/05/06 06:39:48;;;;;;;8.45;3.20;;;5.60;99.90;;;;;;4862841;29;20048;-86
2021/05/06 06:42:15;;;;;;;10.23;2.90;;;5.60;99.90;;;;;;4911129;28;20065;-85
2021/05/06 06:44:41;;;;;;;6.65;3.33;;;5.70;99.90;;;;;;4975057;28;20046;-86
2021/05/06 06:47:08;;;;;;;8.45;3.15;;;5.80;99.90;;;;;;4983346;28;20103;-86
2021/05/06 06:49:42;;;;;;;10.18;3.10;;;6.00;99.90;;;;;;4979751;28;20043;-85
2021/05/06 06:52:10;;;;;;;8.15;2.88;;;6.10;99.90;;;;;;4983297;28;20052;-85
2021/05/06 06:54:37;;;;;;;7.32;2.95;;;6.20;99.90;;;;;;4955396;28;20050;-85
2021/05/06 06:57:06;;;;;;;15.77;3.97;;;6.30;99.90;;;;;;4971660;28;20162;-84
2021/05/06 06:59:32;;;;;;;8.70;3.28;;;6.30;99.90;;;;;;4961892;28;20114;-85
2021/05/06 07:01:59;;;;;;;8.88;3.10;;;6.40;99.90;;;;;;4977884;28;20082;-85
2021/05/06 07:04:28;;;;;;;7.63;3.20;;;6.50;99.90;;;;;;4979443;28;20350;-86
2021/05/06 07:06:56;;;;;;;6.93;3.28;;;6.60;99.90;;;;;;4957463;28;20464;-82
2021/05/06 07:09:23;;;;;;;7.63;3.38;;;6.80;99.90;;;;;;4973655;28;20444;-85
2021/05/06 07:11:50;;;;;;;7.90;3.22;;;6.90;99.90;;;;;;4954319;28;20047;-83
2021/05/06 07:14:17;;;;;;;8.23;3.20;;;6.90;99.90;;;;;;4995401;28;20038;-88
2021/05/06 07:16:45;;;;;;;7.55;2.80;;;6.90;99.90;;;;;;4990065;28;20050;-87
2021/05/06 07:19:12;;;;;;;8.73;3.50;;;7.00;99.90;;;;;;4998245;28;20050;-85
2021/05/06 07:21:39;;;;;;;9.52;3.53;;;7.10;99.90;;;;;;4995264;28;20050;-87
2021/05/06 07:24:06;;;;;;;10.07;3.42;;;7.20;99.90;;;;;;4999897;28;20439;-88
2021/05/06 07:26:39;;;;;;;9.25;3.80;;;7.40;99.90;;;;;;4995147;28;20081;-87
2021/05/06 07:29:08;;;;;;;11.40;3.70;;;7.50;99.90;;;;;;4983979;28;20129;-87
2021/05/06 07:31:47;;;;;;;11.25;3.75;;;7.70;99.90;;;;;;4996792;28;20047;-88
2021/05/06 07:34:17;;;;;;;10.40;3.25;;;7.90;99.90;;;;;;4985893;28;20046;-86
2021/05/06 07:36:46;;;;;;;7.80;3.08;;;8.00;99.90;;;;;;5001130;28;20522;-88
2021/05/06 07:39:17;;;;;;;9.23;2.78;;;8.10;99.90;;;;;;4998388;28;20735;-87
2021/05/06 07:41:45;;;;;;;5.15;2.35;;;8.40;99.90;;;;;;4991445;28;20444;-87
2021/05/06 07:44:16;;;;;;;12.38;3.00;;;8.90;99.90;;;;;;4995000;28;20070;-87
2021/05/06 07:46:44;;;;;;;7.03;2.72;;;9.40;99.90;;;;;;4996107;28;20050;-86
2021/05/06 07:49:18;;;;;;;7.00;2.80;;;9.80;99.90;;;;;;5004221;28;20042;-86
2021/05/06 07:51:47;;;;;;;9.63;2.78;;;10.00;99.90;;;;;;4966697;28;20054;-86
2021/05/06 07:54:16;;;;;;;9.82;2.90;;;10.20;99.90;;;;;;4995070;28;20042;-86
2021/05/06 07:56:48;;;;;;;9.70;2.53;;;10.00;99.90;;;;;;4998151;28;20056;-85
2021/05/06 07:59:15;;;;;;;7.47;2.70;;;10.00;99.90;;;;;;4996220;28;20077;-85
2021/05/06 08:01:44;;;;;;;8.55;3.10;;;9.80;99.90;;;;;;4992358;28;20046;-85
2021/05/06 08:04:10;;;;;;;8.80;3.30;;;9.60;99.90;;;;;;4997833;28;20336;-84
2021/05/06 08:06:40;;;;;;;8.90;2.70;;;9.50;99.90;;;;;;4986728;28;20106;-85
2021/05/06 08:09:08;;;;;;;8.55;2.83;;;9.70;99.90;;;;;;4987938;28;20133;-84
2021/05/06 08:11:35;;;;;;;11.20;3.38;;;9.70;99.90;;;;;;4979869;28;20066;-84
2021/05/06 08:14:04;;;;;;;8.13;2.75;;;9.60;99.90;;;;;;4994139;28;20058;-87
2021/05/06 08:16:31;;;;;;;9.18;2.83;;;9.40;99.90;;;;;;4980931;28;20051;-85
2021/05/06 08:19:00;;;;;;;7.43;2.90;;;9.10;99.90;;;;;;4997002;28;20061;-87
2021/05/06 08:21:50;;;;;;;8.52;2.95;;;9.00;99.90;;;;;;4998801;28;20053;-85
2021/05/06 08:24:16;;;;;;;9.75;2.72;;;8.90;99.90;;;;;;4997203;28;20060;-85
2021/05/06 08:26:43;;;;;;;10.23;3.10;;;8.70;99.90;;;;;;4981521;28;20046;-86
2021/05/06 08:29:09;;;;;;;8.85;2.60;;;8.60;99.90;;;;;;4999964;28;20046;-82
2021/05/06 08:31:36;;;;;;;5.85;3.05;;;8.50;99.90;;;;;;5004552;28;20459;-86
2021/05/06 08:34:03;;;;;;;12.07;3.33;;;8.50;99.90;;;;;;4983193;28;20455;-86
2021/05/06 08:36:29;;;;;;;13.77;3.55;;;8.50;99.90;;;;;;5002597;28;20066;-86
2021/05/06 08:38:56;;;;;;;11.73;3.58;;;8.40;99.90;;;;;;5012988;28;20081;-86
2021/05/06 08:41:23;;;;;;;10.07;3.85;;;8.40;99.90;;;;;;5006572;28;20053;-86
2021/05/06 08:43:56;;;;;;;8.02;3.00;;;8.40;99.90;;;;;;5010429;28;20039;-86
2021/05/06 08:46:31;;;;;;;10.85;3.00;;;8.60;99.90;;;;;;5010399;28;20122;-83
2021/05/06 08:49:03;;;;;;;5.22;2.45;;;8.50;99.90;;;;;;5009882;28;20053;-85
2021/05/06 08:51:32;;;;;;;8.52;2.90;;;8.50;99.90;;;;;;5008804;28;20153;-85
2021/05/06 08:54:00;;;;;;;6.25;2.85;;;8.70;99.90;;;;;;4998263;28;20134;-85
2021/05/06 08:56:27;;;;;;;9.98;3.58;;;8.70;99.90;;;;;;4993357;28;20046;-86
2021/05/06 08:59:01;;;;;;;12.38;3.83;;;8.70;99.90;;;;;;4997959;28;20043;-88
2021/05/06 09:01:28;;;;;;;7.38;2.90;;;8.60;99.90;;;;;;4995847;28;20043;-86
2021/05/06 09:03:54;;;;;;;9.23;3.13;;;8.60;99.90;;;;;;4992891;28;20081;-85
2021/05/06 09:06:26;;;;;;;13.13;3.53;;;8.50;99.90;;;;;;4990076;28;20060;-85
2021/05/06 09:09:00;;;;;;;7.57;3.70;;;8.50;99.90;;;;;;5006866;28;20056;-83
2021/05/06 09:11:39;;;;;;;16.23;3.85;;;8.30;99.90;;;;;;4999202;28;20065;-84
2021/05/06 09:14:11;;;;;;;10.93;3.15;;;8.10;99.90;;;;;;4984075;28;20117;-83
2021/05/06 09:16:43;;;;;;;11.43;2.75;;;7.90;99.90;;;;;;5010394;28;20049;-84
2021/05/06 09:19:15;;;;;;;9.23;3.28;;;7.70;99.90;;;;;;4970033;28;20062;-85
2021/05/06 09:21:46;;;;;;;7.43;3.35;;;7.70;99.90;;;;;;5004050;28;20066;-83
2021/05/06 09:24:25;;;;;;;5.80;2.72;;;7.70;99.90;;;;;;4990880;28;20051;-83
2021/05/06 09:26:59;;;;;;;9.35;3.60;;;7.60;99.90;;;;;;4970079;28;20047;-81
2021/05/06 09:29:41;;;;;;;8.75;2.63;;;7.60;99.90;;;;;;4993673;28;20043;-82
2021/05/06 09:32:10;;;;;;;7.85;2.65;;;7.50;99.90;;;;;;4991253;28;20105;-82
2021/05/06 09:34:42;;;;;;;7.85;3.00;;;7.50;99.90;;;;;;4994316;28;20050;-81
2021/05/06 09:37:19;;;;;;;5.10;2.85;;;7.40;99.90;;;;;;4976521;28;20058;-83
2021/05/06 09:39:58;;;;;;;7.72;3.10;;;7.30;99.90;;;;;;4999786;28;20066;-85
2021/05/06 09:42:41;;;;;;;8.15;2.63;;;7.10;99.90;;;;;;4997921;28;20165;-86
2021/05/06 09:45:27;;;;;;;8.20;3.10;;;7.00;99.90;;;;;;5004821;28;20050;-93
2021/05/06 09:52:01;;;;;;;6.43;3.25;;;6.90;99.90;;;;;;4988731;28;20077;-89
2021/05/06 09:58:11;;;;;;;8.10;3.55;;;6.90;99.90;;;;;;4888106;29;20064;-85
2021/05/06 10:00:38;;;;;;;6.22;3.78;;;6.80;99.90;;;;;;4950257;28;20099;-83
2021/05/06 10:03:12;;;;;;;12.23;5.10;;;6.90;99.90;;;;;;4936786;28;20057;-84
2021/05/06 10:05:43;;;;;;;6.38;2.78;;;6.90;99.90;;;;;;4959659;28;20039;-86
2021/05/06 10:08:11;;;;;;;7.43;2.80;;;7.00;99.90;;;;;;4952165;28;20271;-85
2021/05/06 10:10:40;;;;;;;9.55;3.17;;;7.10;99.90;;;;;;4948468;28;20058;-85
2021/05/06 10:13:10;;;;;;;8.00;3.38;;;7.20;99.90;;;;;;4958805;28;20067;-85
2021/05/06 10:15:43;;;;;;;7.03;2.92;;;7.30;99.90;;;;;;4960672;29;20048;-85
2021/05/06 10:18:10;;;;;;;7.05;3.40;;;7.30;99.90;;;;;;4961090;28;20162;-85
2021/05/06 10:20:38;;;;;;;6.10;2.63;;;7.30;99.90;;;;;;4947661;29;20110;-84
2021/05/06 10:23:05;;;;;;;11.13;3.50;;;7.40;99.90;;;;;;4967224;29;20485;-84
2021/05/06 10:25:32;;;;;;;8.23;2.80;;;7.50;99.90;;;;;;4955129;28;20526;-84
2021/05/06 10:27:59;;;;;;;7.03;2.85;;;7.60;99.90;;;;;;4962392;28;20116;-84
2021/05/06 10:30:25;;;;;;;7.20;2.80;;;7.60;99.90;;;;;;4991123;28;20042;-84
2021/05/06 10:32:53;;;;;;;5.05;2.40;;;7.50;99.90;;;;;;4974754;28;20511;-90
2021/05/06 10:35:26;;;;;;;5.93;2.42;;;7.40;99.90;;;;;;4993204;28;20043;-92
2021/05/06 10:37:56;;;;;;;6.18;2.53;;;7.50;99.90;;;;;;4991375;28;20050;-90
2021/05/06 10:40:23;;;;;;;5.82;2.80;;;7.40;99.90;;;;;;4991862;28;20046;-90
2021/05/06 10:42:51;;;;;;;4.10;2.55;;;7.50;99.90;;;;;;4990925;28;20079;-85
2021/05/06 10:45:22;;;;;;;4.35;2.63;;;7.60;99.90;;;;;;4986106;28;20050;-89
2021/05/06 10:47:54;;;;;;;7.65;2.63;;;7.60;99.90;;;;;;4990168;28;20052;-90
2021/05/06 10:50:39;;;;;;;5.47;2.75;;;7.70;99.90;;;;;;4977863;28;20044;-90
2021/05/06 10:53:08;;;;;;;3.97;2.30;;;7.80;99.90;;;;;;4988776;28;20070;-90
2021/05/06 10:55:53;;;;;;;3.25;2.08;;;7.70;99.90;;;;;;4991607;28;20453;-91
2021/05/06 10:58:23;;;;;;;4.13;2.10;;;7.70;99.90;;;;;;4998720;28;20137;-91
2021/05/06 11:01:14;;;;;;;1.67;1.58;;;7.90;99.90;;;;;;4973073;28;20995;-89
2021/05/06 11:04:00;;;;;;;3.72;1.50;;;8.20;99.90;;;;;;4997584;28;20447;-89
2021/05/06 11:06:36;;;;;;;1.30;1.20;;;8.30;99.90;;;;;;4972794;28;20050;-88
2021/05/06 11:09:25;;;;;;;1.40;1.15;;;8.50;99.90;;;;;;4971600;28;20038;-90
2021/05/06 11:12:29;;;;;;;1.30;1.20;;;8.80;99.90;;;;;;4973419;28;20066;-88
2021/05/06 11:14:59;;;;;;;2.90;1.40;;;9.20;99.90;;;;;;4992297;28;20060;-87
2021/05/06 11:17:42;;;;;;;1.95;1.38;;;9.20;99.90;;;;;;4988841;28;20108;-87
2021/05/06 11:20:13;;;;;;;1.67;1.30;;;9.40;99.90;;;;;;4985637;28;21262;-88
2021/05/06 11:22:46;;;;;;;3.63;1.20;;;9.40;99.90;;;;;;4998894;28;20101;-87
2021/05/06 11:25:40;;;;;;;1.52;1.30;;;9.40;99.90;;;;;;4983479;28;20050;-87
2021/05/06 11:28:27;;;;;;;1.40;1.13;;;9.50;99.90;;;;;;4962124;28;20448;-89
2021/05/06 11:31:01;;;;;;;1.40;1.10;;;9.50;99.90;;;;;;4993337;28;20113;-90
2021/05/06 11:33:28;;;;;;;2.03;1.38;;;9.40;99.90;;;;;;4991067;28;20061;-91
2021/05/06 11:35:58;;;;;;;2.90;1.63;;;9.40;99.90;;;;;;4976571;28;20054;-90
2021/05/06 11:38:38;;;;;;;1.42;1.30;;;9.40;99.90;;;;;;4996768;28;20058;-89
2021/05/06 11:41:13;;;;;;;2.72;1.20;;;9.50;99.90;;;;;;4998292;28;20050;-90
2021/05/06 11:43:54;;;;;;;2.75;1.45;;;9.60;99.90;;;;;;4997637;28;20054;-89
2021/05/06 11:46:27;;;;;;;1.88;1.20;;;9.70;99.90;;;;;;4997216;28;20447;-89
2021/05/06 11:49:04;;;;;;;2.58;1.35;;;9.80;99.90;;;;;;4976470;28;20128;-89
2021/05/06 11:51:42;;;;;;;3.35;1.67;;;9.50;99.90;;;;;;4991002;28;20050;-88
2021/05/06 11:54:17;;;;;;;1.75;1.55;;;9.20;99.90;;;;;;4991661;28;20043;-89
2021/05/06 11:56:57;;;;;;;3.17;1.50;;;9.10;99.90;;;;;;4975433;28;20046;-88
2021/05/06 11:59:28;;;;;;;1.95;1.35;;;9.10;99.90;;;;;;4975623;28;20050;-89
2021/05/06 12:01:57;;;;;;;1.70;1.33;;;9.00;99.90;;;;;;4989820;28;20054;-87
2021/05/06 12:04:34;;;;;;;2.28;1.73;;;9.00;99.90;;;;;;4984212;28;20042;-88
2021/05/06 12:07:20;;;;;;;1.40;1.27;;;8.80;99.90;;;;;;4976916;28;20062;-92
2021/05/06 12:10:10;;;;;;;2.33;1.50;;;8.70;99.90;;;;;;4977889;28;20081;-91
2021/05/06 12:12:40;;;;;;;1.73;1.23;;;8.80;99.90;;;;;;4974640;28;20057;-91
2021/05/06 12:18:32;;;;;;;2.55;1.52;;;8.70;99.90;;;;;;4988527;28;20490;-89
2021/05/06 12:24:11;;;;;;;1.67;1.55;;;8.50;99.90;;;;;;4945457;28;20166;-89
2021/05/06 12:27:20;;;;;;;4.05;1.80;;;8.50;99.90;;;;;;4934971;29;20066;-91
2021/05/06 12:29:55;;;;;;;5.43;1.70;;;8.40;99.90;;;;;;4948564;28;20310;-90
2021/05/06 12:32:28;;;;;;;3.92;2.15;;;8.10;99.90;;;;;;4947475;28;20051;-89
2021/05/06 12:35:02;;;;;;;3.28;2.17;;;7.90;99.90;;;;;;4948211;29;20043;-86
2021/05/06 12:37:40;;;;;;;7.78;4.78;;;7.90;99.90;;;;;;4948288;29;20151;-88
2021/05/06 12:40:25;;;;;;;6.40;3.00;;;7.80;99.90;;;;;;4948180;29;20055;-89
2021/05/06 12:43:27;;;;;;;4.05;2.75;;;7.60;99.90;;;;;;4983245;28;20129;-89
2021/05/06 12:49:26;;;;;;;9.07;3.05;;;7.40;99.90;;;;;;5001902;28;20410;-87
2021/05/06 12:51:55;;;;;;;5.78;2.78;;;7.30;99.90;;;;;;4993464;28;20495;-90
2021/05/06 12:54:48;;;;;;;3.00;2.80;;;7.30;99.90;;;;;;4977994;28;20058;-90
2021/05/06 12:57:22;;;;;;;3.08;2.80;;;7.40;99.90;;;;;;5000543;28;20492;-90
2021/05/06 12:59:52;;;;;;;3.78;3.00;;;7.30;99.90;;;;;;5002498;28;20042;-91
2021/05/06 13:02:31;;;;;;;3.53;2.92;;;7.30;99.90;;;;;;5001729;28;20050;-91
2021/05/06 13:05:13;;;;;;;6.15;4.43;;;7.30;99.90;;;;;;4993652;28;20046;-88
2021/05/06 13:07:54;;;;;;;5.25;3.97;;;7.30;99.90;;;;;;5000253;28;20038;-91
2021/05/06 13:10:29;;;;;;;8.38;4.63;;;7.20;99.90;;;;;;4990069;28;20054;-89
2021/05/06 13:13:06;;;;;;;5.47;4.28;;;7.20;99.90;;;;;;5003245;28;20046;-87
2021/05/06 13:15:50;;;;;;;6.68;4.35;;;7.10;99.90;;;;;;4995172;28;20632;-89
2021/05/06 13:18:22;;;;;;;6.50;5.15;;;7.10;99.90;;;;;;4994233;28;20341;-88
2021/05/06 13:20:49;;;;;;;9.02;4.72;;;7.00;99.90;;;;;;4994915;28;20475;-88
2021/05/06 13:23:30;;;;;;;8.23;4.95;;;7.00;99.90;;;;;;5002064;28;20467;-89
2021/05/06 13:26:11;;;;;;;11.32;5.22;;;7.00;99.90;;;;;;4991450;28;20471;-91
2021/05/06 13:33:31;;;;;;;7.68;5.97;;;7.00;99.90;;;;;;4931574;29;20048;-91
2021/05/06 13:37:23;;;;;;;;;;;;;;;;;;;;;
2021/05/06 13:44:53;;;;;;;;;;;;;;;;;;;;;
2021/05/06 13:52:20;;;;;;;;;;;;;;;;;;;;;
2021/05/06 13:55:24;;;;;;;4.13;2.88;;;7.00;99.90;;;;;;4694225;30;20119;-92
2021/05/06 14:02:06;;;;;;;4.57;2.63;;;7.00;99.90;;;;;;4856278;29;20053;-91
2021/05/06 14:05:16;;;;;;;3.25;2.50;;;7.00;99.90;;;;;;4861072;29;20206;-87
2021/05/06 14:08:25;;;;;;;;;;;;;;;;;;;;;
2021/05/06 14:11:20;;;;;;;3.60;2.58;;;6.90;99.90;;;;;;4947883;29;20054;-90
2021/05/06 14:14:05;;;;;;;4.20;2.42;;;6.90;99.90;;;;;;4952900;29;20079;-88
2021/05/06 14:17:04;;;;;;;3.80;2.47;;;7.00;99.90;;;;;;4938383;29;20063;-86
2021/05/06 14:19:46;;;;;;;3.95;2.10;;;7.00;99.90;;;;;;4925290;29;20513;-89
2021/05/06 14:22:33;;;;;;;3.88;2.08;;;6.90;99.90;;;;;;4931559;29;20484;-89
2021/05/06 14:25:35;;;;;;;3.28;2.65;;;6.90;99.90;;;;;;4928924;29;20058;-90
2021/05/06 14:28:13;;;;;;;3.55;2.40;;;6.80;99.90;;;;;;4937751;29;20055;-89
2021/05/06 14:30:53;;;;;;;2.05;1.90;;;6.80;99.90;;;;;;4934409;29;20048;-88
2021/05/06 14:33:49;;;;;;;;;;;;;;;;;;;;;
2021/05/06 14:36:39;;;;;;;4.00;1.65;;;6.80;99.90;;;;;;4949077;28;20146;-87
2021/05/06 14:39:36;;;;;;;3.10;1.98;;;6.80;99.90;;;;;;4951417;28;20027;-89
2021/05/06 14:42:22;;;;;;;4.15;1.77;;;6.80;99.90;;;;;;4937819;28;20078;-88
2021/05/06 14:45:39;;;;;;;4.95;2.40;;;6.80;99.90;;;;;;4922443;28;20139;-87
2021/05/06 14:48:28;;;;;;;3.90;1.63;;;6.80;99.90;;;;;;4943599;29;20073;-85
2021/05/06 14:50:58;;;;;;;1.95;1.20;;;6.80;99.90;;;;;;4945614;29;20564;-86
2021/05/06 14:53:29;;;;;;;3.95;3.03;;;6.80;99.90;;;;;;4930593;28;20075;-85
2021/05/06 14:55:57;;;;;;;2.63;2.03;;;6.80;99.90;;;;;;4956491;28;20048;-84
2021/05/06 14:58:42;;;;;;;3.03;1.52;;;6.90;99.90;;;;;;4939505;29;20228;-91
2021/05/06 15:01:09;;;;;;;2.75;1.65;;;7.00;99.90;;;;;;4933262;29;20138;-88
2021/05/06 15:03:37;;;;;;;3.63;2.58;;;7.00;99.90;;;;;;4936202;29;20043;-83
2021/05/06 15:06:06;;;;;;;2.78;1.60;;;7.10;99.90;;;;;;4915259;29;20147;-82
2021/05/06 15:08:41;;;;;;;2.08;1.90;;;7.10;99.90;;;;;;4928122;29;20043;-83
2021/05/06 15:11:09;;;;;;;4.78;2.65;;;7.20;99.90;;;;;;4918286;29;20123;-82
2021/05/06 15:14:03;;;;;;;3.50;2.60;;;7.20;99.90;;;;;;4930334;29;20048;-81
2021/05/06 15:16:29;;;;;;;5.32;2.35;;;7.20;99.90;;;;;;4917125;29;20127;-83
2021/05/06 15:18:56;;;;;;;2.65;2.13;;;7.20;99.90;;;;;;4932573;29;20052;-84
2021/05/06 15:21:22;;;;;;;2.42;2.08;;;7.10;99.90;;;;;;4938046;29;20111;-83
2021/05/06 15:23:49;;;;;;;4.65;1.98;;;7.00;99.90;;;;;;4933676;29;20122;-85
2021/05/06 15:26:20;;;;;;;3.00;2.35;;;7.00;99.90;;;;;;4930596;29;20150;-88
2021/05/06 15:28:49;;;;;;;4.65;2.58;;;7.00;99.90;;;;;;4932676;29;20124;-88
2021/05/06 15:31:15;;;;;;;5.25;2.70;;;7.10;99.90;;;;;;4931622;29;20104;-87
2021/05/06 15:33:42;;;;;;;6.35;2.60;;;7.10;99.90;;;;;;4932215;29;20116;-89
2021/05/06 15:36:11;;;;;;;4.28;2.17;;;7.20;99.90;;;;;;4916474;29;20052;-86
2021/05/06 15:38:40;;;;;;;3.78;2.53;;;7.20;99.90;;;;;;4928238;29;20079;-86
2021/05/06 15:41:06;;;;;;;5.95;2.60;;;7.20;99.90;;;;;;4930215;29;20082;-85
2021/05/06 15:43:35;;;;;;;2.67;2.45;;;7.20;99.90;;;;;;4912515;29;20168;-85
2021/05/06 15:46:13;;;;;;;2.97;2.25;;;7.30;99.90;;;;;;4932975;29;20052;-88
2021/05/06 15:48:40;;;;;;;3.60;2.50;;;7.30;99.90;;;;;;4931719;29;20090;-88
2021/05/06 15:51:07;;;;;;;5.15;2.33;;;7.30;99.90;;;;;;4930984;29;20051;-86
2021/05/06 15:53:33;;;;;;;2.45;2.25;;;7.20;99.90;;;;;;4932755;29;20047;-86
2021/05/06 15:56:01;;;;;;;4.68;2.45;;;7.20;99.90;;;;;;4930756;29;20138;-87
2021/05/06 15:58:28;;;;;;;6.53;2.75;;;7.20;99.90;;;;;;4930365;29;20056;-90
2021/05/06 16:00:59;;;;;;;3.50;2.50;;;7.10;99.90;;;;;;4929171;29;20139;-86
2021/05/06 16:03:32;;;;;;;6.80;2.70;;;7.10;99.90;;;;;;4931647;29;20051;-90
2021/05/06 16:05:58;;;;;;;5.00;2.88;;;7.10;99.90;;;;;;4936401;29;20154;-91
2021/05/06 16:08:27;;;;;;;5.03;2.33;;;7.10;99.90;;;;;;4924484;29;20044;-90
2021/05/06 16:10:56;;;;;;;4.38;3.00;;;7.10;99.90;;;;;;4936080;29;20047;-91
2021/05/06 16:13:24;;;;;;;2.63;2.42;;;7.10;99.90;;;;;;4937639;29;20063;-89
2021/05/06 16:15:50;;;;;;;5.05;2.78;;;7.10;99.90;;;;;;4927381;29;20383;-89
2021/05/06 16:18:21;;;;;;;6.25;2.72;;;7.10;99.90;;;;;;4932259;29;20111;-88
2021/05/06 16:20:49;;;;;;;4.65;3.17;;;7.10;99.90;;;;;;4932076;29;20043;-90
2021/05/06 16:23:16;;;;;;;5.05;2.92;;;7.10;99.90;;;;;;4916559;29;20139;-90
2021/05/06 16:25:42;;;;;;;3.85;2.80;;;7.20;99.90;;;;;;4934243;29;20079;-89
2021/05/06 16:28:10;;;;;;;3.67;3.08;;;7.40;99.90;;;;;;4937418;29;20105;-92
2021/05/06 16:30:37;;;;;;;4.85;3.17;;;7.70;99.90;;;;;;4931453;29;20134;-90
2021/05/06 16:33:11;;;;;;;4.05;2.10;;;7.90;99.90;;;;;;4933498;29;20156;-90
2021/05/06 16:35:45;;;;;;;3.17;2.50;;;7.90;99.90;;;;;;4939202;29;20426;-91
2021/05/06 16:38:14;;;;;;;4.28;2.60;;;7.80;99.90;;;;;;4938361;29;20075;-89
2021/05/06 16:43:51;;;;;;;5.05;3.03;;;7.70;99.90;;;;;;4929960;29;20063;-90
2021/05/06 16:46:41;;;;;;;3.35;2.17;;;7.70;99.90;;;;;;4949217;29;20046;-90
2021/05/06 16:49:11;;;;;;;1.52;1.40;;;7.60;99.90;;;;;;4944879;29;20056;-91
2021/05/06 16:51:39;;;;;;;2.35;1.75;;;7.70;99.90;;;;;;4944274;29;20127;-92
2021/05/06 16:54:06;;;;;;;3.10;1.70;;;7.70;99.90;;;;;;4939972;29;20423;-91
2021/05/06 16:56:34;;;;;;;1.67;1.52;;;7.70;99.90;;;;;;4926695;29;20123;-90
2021/05/06 16:59:05;;;;;;;2.85;1.50;;;7.80;99.90;;;;;;4935113;29;20106;-89
2021/05/06 17:01:34;;;;;;;1.50;1.40;;;7.70;99.90;;;;;;4947241;29;20089;-86
2021/05/06 17:04:01;;;;;;;3.22;1.92;;;7.70;99.90;;;;;;4938370;29;20056;-88
2021/05/06 17:06:27;;;;;;;4.07;2.90;;;7.70;99.90;;;;;;4923804;29;20047;-89
2021/05/06 17:08:53;;;;;;;2.83;1.90;;;7.70;99.90;;;;;;4941862;29;20055;-89
2021/05/06 17:11:20;;;;;;;2.83;2.10;;;7.70;99.90;;;;;;4942415;29;20047;-90
2021/05/06 17:13:48;;;;;;;2.85;2.50;;;7.70;99.90;;;;;;4928604;29;20048;-90
2021/05/06 17:16:51;;;;;;;2.90;2.30;;;7.70;99.90;;;;;;4950330;29;20052;-89
2021/05/06 17:19:53;;;;;;;7.07;3.92;;;7.70;99.90;;;;;;4938649;29;20159;-90
2021/05/06 17:22:43;;;;;;;3.90;3.15;;;7.70;99.90;;;;;;4935768;29;20048;-91
2021/05/06 17:25:39;;;;;;;3.85;3.13;;;7.70;99.90;;;;;;4930941;29;20055;-88
2021/05/06 17:28:29;;;;;;;3.20;2.90;;;7.70;99.90;;;;;;4934142;29;20051;-91
2021/05/06 17:31:26;;;;;;;4.47;3.15;;;7.70;99.90;;;;;;4887630;29;20112;-89
2021/05/06 17:37:51;;;;;;;3.88;2.78;;;7.80;99.90;;;;;;4892920;29;20199;-91
2021/05/06 17:45:51;;;;;;;2.60;2.40;;;7.80;99.90;;;;;;4814754;29;20080;-92
2021/05/06 17:49:08;;;;;;;;;;;;;;;;;;;;;
2021/05/06 18:12:01;;;;;;;4.88;2.85;;;7.90;99.90;;;;;;4703791;30;19943;-92
2021/05/06 18:32:31;;;;;;;;;;;;;;;;;;;;;
2021/05/06 18:34:59;;;;;;;4.57;3.58;;;7.80;99.90;;;;;;6201409;23;20405;-92
2021/05/06 19:04:09;;;;;;;3.25;2.50;;;7.70;99.90;;;;;;6249238;22;1276997;-90
2021/05/06 19:06:49;;;;;;;3.42;2.15;;;7.60;99.90;;;;;;6230028;23;20324;-86
2021/05/06 19:09:36;;;;;;;3.47;3.17;;;7.70;99.90;;;;;;6231693;23;20056;-88
2021/05/06 19:12:38;;;;;;;;;;;;;;;;;;;;;